createdAt,value
2019-05-21T00:00:25.848Z,99.90
2019-05-21T00:02:53.130Z,99.90
2019-05-21T00:05:20.539Z,99.90
2019-05-21T00:07:47.961Z,99.90
2019-05-21T00:10:16.249Z,99.90
2019-05-21T00:12:43.652Z,99.90
2019-05-21T00:15:11.184Z,99.90
2019-05-21T00:17:38.536Z,99.90
2019-05-21T00:20:06.209Z,99.90
2019-05-21T00:22:33.640Z,99.90
2019-05-21T00:25:00.986Z,99.90
2019-05-21T00:27:28.410Z,99.90
2019-05-21T00:30:32.405Z,99.90
2019-05-21T00:33:36.800Z,99.90
2019-05-21T00:36:42.789Z,99.90
2019-05-21T00:39:46.932Z,99.90
2019-05-21T00:42:19.390Z,99.90
2019-05-21T00:44:46.847Z,99.90
2019-05-21T00:47:15.270Z,99.90
2019-05-21T00:49:42.652Z,99.90
2019-05-21T00:52:10.022Z,99.90
2019-05-21T00:54:37.436Z,99.90
2019-05-21T00:57:05.105Z,99.90
2019-05-21T00:59:32.571Z,99.90
2019-05-21T01:01:59.996Z,99.90
2019-05-21T01:04:27.385Z,99.90
2019-05-21T01:06:54.704Z,99.90
2019-05-21T01:09:22.099Z,99.90
2019-05-21T01:11:49.491Z,99.90
2019-05-21T01:14:16.911Z,99.90
2019-05-21T01:16:44.350Z,99.90
2019-05-21T01:19:11.700Z,99.90
2019-05-21T01:21:39.132Z,99.90
2019-05-21T01:24:06.400Z,99.90
2019-05-21T01:26:33.888Z,99.90
2019-05-21T01:29:01.305Z,99.90
2019-05-21T01:31:28.680Z,99.90
2019-05-21T01:33:55.964Z,99.90
2019-05-21T01:36:23.263Z,99.90
2019-05-21T01:38:50.678Z,99.90
2019-05-21T01:41:18.084Z,99.90
2019-05-21T01:43:45.527Z,99.90
2019-05-21T01:46:12.919Z,99.90
2019-05-21T01:48:40.295Z,99.90
2019-05-21T01:51:08.596Z,99.90
2019-05-21T01:53:35.996Z,99.90
2019-05-21T01:56:03.575Z,99.90
2019-05-21T01:58:31.174Z,99.90
2019-05-21T02:00:58.608Z,99.90
2019-05-21T02:03:26.035Z,99.90
2019-05-21T02:05:53.594Z,99.90
2019-05-21T02:08:20.983Z,99.90
2019-05-21T02:10:48.346Z,99.90
2019-05-21T02:13:15.735Z,99.90
2019-05-21T02:15:43.125Z,99.90
2019-05-21T02:18:10.531Z,99.90
2019-05-21T02:20:37.933Z,99.90
2019-05-21T02:23:05.286Z,99.90
2019-05-21T02:25:32.772Z,99.90
2019-05-21T02:28:00.206Z,99.90
2019-05-21T02:30:27.583Z,99.90
2019-05-21T02:32:54.974Z,99.90
2019-05-21T02:35:22.391Z,99.90
2019-05-21T02:37:49.747Z,99.90
2019-05-21T02:40:17.830Z,99.90
2019-05-21T02:42:45.310Z,99.90
2019-05-21T02:45:14.883Z,99.90
2019-05-21T02:47:42.263Z,99.90
2019-05-21T02:50:10.476Z,99.90
2019-05-21T02:52:39.051Z,99.90
2019-05-21T02:55:06.629Z,99.90
2019-05-21T02:57:43.280Z,99.90
2019-05-21T03:00:30.940Z,99.90
2019-05-21T03:02:58.955Z,99.90
2019-05-21T03:05:26.334Z,99.90
2019-05-21T03:07:53.876Z,99.90
2019-05-21T03:10:21.244Z,99.90
2019-05-21T03:12:48.601Z,99.90
2019-05-21T03:15:16.064Z,99.90
2019-05-21T03:17:43.467Z,99.90
2019-05-21T03:20:12.818Z,99.90
2019-05-21T03:22:40.209Z,99.90
2019-05-21T03:25:08.815Z,99.90
2019-05-21T03:27:36.220Z,99.90
2019-05-21T03:30:03.702Z,99.90
2019-05-21T03:32:31.069Z,99.90
2019-05-21T03:34:58.486Z,99.90
2019-05-21T03:37:25.882Z,99.90
2019-05-21T03:39:53.166Z,99.90
2019-05-21T03:42:20.696Z,99.90
2019-05-21T03:44:58.819Z,99.90
2019-05-21T03:47:17.352Z,99.90
2019-05-21T03:49:44.838Z,99.90
2019-05-21T03:52:12.085Z,99.90
2019-05-21T03:54:39.461Z,99.90
2019-05-21T03:57:06.862Z,99.90
2019-05-21T03:59:34.298Z,99.90
2019-05-21T04:02:01.679Z,99.90
2019-05-21T04:04:29.439Z,99.90
2019-05-21T04:06:56.823Z,99.90
2019-05-21T04:09:24.295Z,99.90
2019-05-21T04:11:53.512Z,99.90
2019-05-21T04:14:44.564Z,99.90
2019-05-21T04:17:19.815Z,99.90
2019-05-21T04:19:47.250Z,99.90
2019-05-21T04:22:16.036Z,99.90
2019-05-21T04:24:43.446Z,99.90
2019-05-21T04:27:10.897Z,99.90
2019-05-21T04:29:38.244Z,99.90
2019-05-21T04:32:05.569Z,99.90
2019-05-21T04:34:32.936Z,99.90
2019-05-21T04:37:10.120Z,99.90
2019-05-21T04:39:29.536Z,99.90
2019-05-21T04:41:56.907Z,99.90
2019-05-21T04:44:24.262Z,99.90
2019-05-21T04:46:51.715Z,99.90
2019-05-21T04:49:19.087Z,99.90
2019-05-21T04:51:46.488Z,99.90
2019-05-21T04:54:13.939Z,99.90
2019-05-21T04:56:41.398Z,99.90
2019-05-21T04:59:08.859Z,99.90
2019-05-21T05:01:36.246Z,99.90
2019-05-21T05:04:03.724Z,99.90
2019-05-21T05:06:31.127Z,99.90
2019-05-21T05:08:58.519Z,99.90
2019-05-21T05:11:25.982Z,99.90
2019-05-21T05:13:53.374Z,99.90
2019-05-21T05:16:20.836Z,99.90
2019-05-21T05:18:48.313Z,99.90
2019-05-21T05:21:15.615Z,99.90
2019-05-21T05:23:42.977Z,99.90
2019-05-21T05:26:10.355Z,99.90
2019-05-21T05:28:37.729Z,99.90
2019-05-21T05:31:05.134Z,99.90
2019-05-21T05:33:32.553Z,99.90
2019-05-21T05:35:59.966Z,99.90
2019-05-21T05:38:27.374Z,99.90
2019-05-21T05:40:56.556Z,99.90
2019-05-21T05:43:23.839Z,99.90
2019-05-21T05:45:51.363Z,99.90
2019-05-21T05:48:19.282Z,99.90
2019-05-21T05:50:48.686Z,99.90
2019-05-21T05:53:15.961Z,99.90
2019-05-21T05:55:43.404Z,99.90
2019-05-21T05:58:10.800Z,99.90
2019-05-21T06:00:38.168Z,99.90
2019-05-21T06:03:05.586Z,99.90
2019-05-21T06:05:32.961Z,99.90
2019-05-21T06:08:00.651Z,99.90
2019-05-21T06:10:29.588Z,99.90
2019-05-21T06:12:56.990Z,99.90
2019-05-21T06:15:24.365Z,99.90
2019-05-21T06:17:51.886Z,99.90
2019-05-21T06:20:19.405Z,99.90
2019-05-21T06:22:46.812Z,99.90
2019-05-21T06:25:15.899Z,99.90
2019-05-21T06:27:43.275Z,99.90
2019-05-21T06:30:12.793Z,99.90
2019-05-21T06:32:40.236Z,99.90
2019-05-21T06:35:07.656Z,99.90
2019-05-21T06:37:35.030Z,99.90
2019-05-21T06:40:04.361Z,99.90
2019-05-21T06:42:31.750Z,99.90
2019-05-21T06:44:59.128Z,99.90
2019-05-21T06:47:26.554Z,99.90
2019-05-21T06:49:53.996Z,99.90
2019-05-21T06:52:21.467Z,99.90
2019-05-21T06:54:48.915Z,99.90
2019-05-21T06:57:16.311Z,99.90
2019-05-21T06:59:43.696Z,99.90
2019-05-21T07:02:11.037Z,99.90
2019-05-21T07:04:38.400Z,99.90
2019-05-21T07:07:05.797Z,99.90
2019-05-21T07:09:33.197Z,99.90
2019-05-21T07:12:00.451Z,99.90
2019-05-21T07:14:27.757Z,99.90
2019-05-21T07:16:55.123Z,99.90
2019-05-21T07:19:22.533Z,99.90
2019-05-21T07:21:49.947Z,99.90
2019-05-21T07:24:17.303Z,99.90
2019-05-21T07:26:44.873Z,99.90
2019-05-21T07:29:12.342Z,99.90
2019-05-21T07:31:39.774Z,99.90
2019-05-21T07:34:07.183Z,99.90
2019-05-21T07:36:34.567Z,99.90
2019-05-21T07:39:01.937Z,99.90
2019-05-21T07:41:29.332Z,99.90
2019-05-21T07:43:56.722Z,99.90
2019-05-21T07:46:24.231Z,99.90
2019-05-21T07:48:51.633Z,99.90
2019-05-21T07:51:19.155Z,99.90
2019-05-21T07:53:46.584Z,99.90
2019-05-21T07:56:13.967Z,99.90
2019-05-21T07:58:41.416Z,99.90
2019-05-21T08:01:08.807Z,99.90
2019-05-21T08:03:36.090Z,99.90
2019-05-21T08:06:03.644Z,99.90
2019-05-21T08:08:31.029Z,99.90
2019-05-21T08:10:58.512Z,99.90
2019-05-21T08:13:25.870Z,99.90
2019-05-21T08:15:53.309Z,99.90
2019-05-21T08:18:20.673Z,99.90
2019-05-21T08:20:48.043Z,99.90
2019-05-21T08:23:15.454Z,99.90
2019-05-21T08:25:42.956Z,99.90
2019-05-21T08:28:10.441Z,99.90
2019-05-21T08:30:37.850Z,99.90
2019-05-21T08:33:05.254Z,99.90
2019-05-21T08:35:32.620Z,99.90
2019-05-21T08:38:00.009Z,99.90
2019-05-21T08:40:27.443Z,99.90
2019-05-21T08:42:54.897Z,99.90
2019-05-21T08:45:22.394Z,99.90
2019-05-21T08:47:49.851Z,99.90
2019-05-21T08:50:17.359Z,99.90
2019-05-21T08:52:44.804Z,99.90
2019-05-21T08:55:12.177Z,99.90
2019-05-21T08:57:39.553Z,99.90
2019-05-21T09:00:10.164Z,99.90
2019-05-21T09:02:37.591Z,99.90
2019-05-21T09:05:05.717Z,99.90
2019-05-21T09:07:33.444Z,99.90
2019-05-21T09:10:00.823Z,99.90
2019-05-21T09:12:28.200Z,99.90
2019-05-21T09:14:55.674Z,99.90
2019-05-21T09:17:22.969Z,99.90
2019-05-21T09:19:51.171Z,99.90
2019-05-21T09:22:18.546Z,99.90
2019-05-21T09:24:45.986Z,99.90
2019-05-21T09:27:13.492Z,99.90
2019-05-21T09:29:40.869Z,99.90
2019-05-21T09:32:08.688Z,99.90
2019-05-21T09:34:48.070Z,99.90
2019-05-21T09:37:18.503Z,99.90
2019-05-21T09:39:34.528Z,99.90
2019-05-21T09:42:02.037Z,99.90
2019-05-21T09:44:31.091Z,99.90
2019-05-21T09:46:58.531Z,99.90
2019-05-21T09:49:25.906Z,99.90
2019-05-21T09:51:53.245Z,99.90
2019-05-21T09:54:20.618Z,99.90
2019-05-21T09:56:48.041Z,99.90
2019-05-21T09:59:25.236Z,99.90
2019-05-21T10:01:54.480Z,99.90
2019-05-21T10:04:21.872Z,99.90
2019-05-21T10:06:49.343Z,99.90
2019-05-21T10:09:18.114Z,99.90
2019-05-21T10:11:45.527Z,99.90
2019-05-21T10:14:13.000Z,99.90
2019-05-21T10:16:41.456Z,99.90
2019-05-21T10:19:09.106Z,99.90
2019-05-21T10:21:36.569Z,99.90
2019-05-21T10:24:04.164Z,99.90
2019-05-21T10:26:31.579Z,99.90
2019-05-21T10:28:58.970Z,99.90
2019-05-21T10:31:26.473Z,99.90
2019-05-21T10:33:53.885Z,99.90
2019-05-21T10:36:21.294Z,99.90
2019-05-21T10:38:48.831Z,99.90
2019-05-21T10:41:16.256Z,99.90
2019-05-21T10:43:43.605Z,99.90
2019-05-21T10:46:11.072Z,99.90
2019-05-21T10:48:39.532Z,99.90
2019-05-21T10:51:06.919Z,99.90
2019-05-21T10:53:34.287Z,99.90
2019-05-21T10:56:01.677Z,99.90
2019-05-21T10:58:29.068Z,99.90
2019-05-21T11:01:02.885Z,99.90
2019-05-21T11:03:49.792Z,99.90
2019-05-21T11:06:17.151Z,99.90
2019-05-21T11:08:44.544Z,99.90
2019-05-21T11:11:11.940Z,99.90
2019-05-21T11:13:39.354Z,99.90
2019-05-21T11:16:06.745Z,99.90
2019-05-21T11:18:34.199Z,99.90
2019-05-21T11:21:01.574Z,99.90
2019-05-21T11:23:28.956Z,99.90
2019-05-21T11:25:56.352Z,99.90
2019-05-21T11:28:23.765Z,99.90
2019-05-21T11:30:51.138Z,99.90
2019-05-21T11:33:18.493Z,99.90
2019-05-21T11:35:45.864Z,99.30
2019-05-21T11:38:13.271Z,98.50
2019-05-21T11:40:40.653Z,97.50
2019-05-21T11:43:08.101Z,96.80
2019-05-21T11:45:35.502Z,96.10
2019-05-21T11:48:02.978Z,96.00
2019-05-21T11:50:30.370Z,95.80
2019-05-21T11:52:57.666Z,95.40
2019-05-21T11:55:25.023Z,95.90
2019-05-21T11:57:52.436Z,96.60
2019-05-21T12:00:22.014Z,96.10
2019-05-21T12:02:51.118Z,96.50
2019-05-21T12:05:18.636Z,96.80
2019-05-21T12:07:46.089Z,96.90
2019-05-21T12:10:13.500Z,96.80
2019-05-21T12:12:40.763Z,97.70
2019-05-21T12:15:10.512Z,96.80
2019-05-21T12:17:37.874Z,96.60
2019-05-21T12:20:05.470Z,96.40
2019-05-21T12:22:32.867Z,96.20
2019-05-21T12:25:00.326Z,96.00
2019-05-21T12:27:27.677Z,96.40
2019-05-21T12:29:55.131Z,96.20
2019-05-21T12:32:22.489Z,96.40
2019-05-21T12:34:49.939Z,96.50
2019-05-21T12:37:17.382Z,96.70
2019-05-21T12:39:44.598Z,96.10
2019-05-21T12:42:12.078Z,96.30
2019-05-21T12:44:39.496Z,96.40
2019-05-21T12:47:09.757Z,96.90
2019-05-21T12:49:36.148Z,97.10
2019-05-21T12:52:03.611Z,97.70
2019-05-21T12:54:30.986Z,97.20
2019-05-21T12:56:58.395Z,97.50
2019-05-21T12:59:25.809Z,97.60
2019-05-21T13:01:53.210Z,97.60
2019-05-21T13:04:20.627Z,97.50
2019-05-21T13:06:47.928Z,97.60
2019-05-21T13:09:31.507Z,97.80
2019-05-21T13:11:44.616Z,98.20
2019-05-21T13:14:17.785Z,98.70
2019-05-21T13:16:41.322Z,99.90
2019-05-21T13:19:11.238Z,99.90
2019-05-21T13:21:37.985Z,99.90
2019-05-21T13:24:05.323Z,99.90
2019-05-21T13:26:32.735Z,99.90
2019-05-21T13:29:00.216Z,99.90
2019-05-21T13:31:27.981Z,99.90
2019-05-21T13:33:55.445Z,99.90
2019-05-21T13:36:22.817Z,99.90
2019-05-21T13:38:50.190Z,99.90
2019-05-21T13:41:17.557Z,99.90
2019-05-21T13:43:44.974Z,99.90
2019-05-21T13:46:12.427Z,99.90
2019-05-21T13:48:39.833Z,99.90
2019-05-21T13:51:07.226Z,99.90
2019-05-21T13:53:34.740Z,99.90
2019-05-21T13:56:01.980Z,99.90
2019-05-21T13:58:29.201Z,99.50
2019-05-21T14:00:58.480Z,99.40
2019-05-21T14:03:25.863Z,99.30
2019-05-21T14:05:53.299Z,98.70
2019-05-21T14:08:20.656Z,97.60
2019-05-21T14:10:48.101Z,96.70
2019-05-21T14:13:15.483Z,96.70
2019-05-21T14:15:42.933Z,96.40
2019-05-21T14:18:10.264Z,95.90
2019-05-21T14:20:37.651Z,95.30
2019-05-21T14:23:04.902Z,94.60
2019-05-21T14:25:32.237Z,95.10
2019-05-21T14:27:59.637Z,94.60
2019-05-21T14:30:27.016Z,94.60
2019-05-21T14:32:54.460Z,94.90
2019-05-21T14:35:21.963Z,95.50
2019-05-21T14:37:49.333Z,95.40
2019-05-21T14:40:31.072Z,96.00
2019-05-21T14:42:59.193Z,95.90
2019-05-21T14:45:17.573Z,95.40
2019-05-21T14:47:44.943Z,95.60
2019-05-21T14:50:12.473Z,95.60
2019-05-21T14:52:39.844Z,95.80
2019-05-21T14:55:07.757Z,96.00
2019-05-21T14:57:35.153Z,95.60
2019-05-21T15:00:05.368Z,95.50
2019-05-21T15:02:32.679Z,95.70
2019-05-21T15:05:00.124Z,95.90
2019-05-21T15:07:27.505Z,97.50
2019-05-21T15:09:54.912Z,97.90
2019-05-21T15:12:22.347Z,98.70
2019-05-21T15:14:49.726Z,99.50
2019-05-21T15:17:17.094Z,99.90
2019-05-21T15:19:46.921Z,99.90
2019-05-21T15:22:14.297Z,99.90
2019-05-21T15:24:41.666Z,99.90
2019-05-21T15:27:09.121Z,99.90
2019-05-21T15:29:36.403Z,99.90
2019-05-21T15:32:03.797Z,99.90
2019-05-21T15:34:31.234Z,99.90
2019-05-21T15:36:58.597Z,99.90
2019-05-21T15:39:25.991Z,99.90
2019-05-21T15:41:53.283Z,99.90
2019-05-21T15:44:20.654Z,99.90
2019-05-21T15:46:50.465Z,99.90
2019-05-21T15:49:17.232Z,99.90
2019-05-21T15:51:44.529Z,99.90
2019-05-21T15:54:11.963Z,99.90
2019-05-21T15:56:39.335Z,99.90
2019-05-21T15:59:06.745Z,99.90
2019-05-21T16:01:34.263Z,99.90
2019-05-21T16:04:01.614Z,99.90
2019-05-21T16:06:28.976Z,99.90
2019-05-21T16:08:56.433Z,99.90
2019-05-21T16:11:28.728Z,99.90
2019-05-21T16:13:53.144Z,99.90
2019-05-21T16:16:20.803Z,99.90
2019-05-21T16:18:48.082Z,99.90
2019-05-21T16:21:15.461Z,99.90
2019-05-21T16:23:42.838Z,99.90
2019-05-21T16:26:10.272Z,99.90
2019-05-21T16:28:37.672Z,99.90
2019-05-21T16:31:05.061Z,99.90
2019-05-21T16:33:32.420Z,99.90
2019-05-21T16:35:59.890Z,99.90
2019-05-21T16:38:27.343Z,99.90
2019-05-21T16:40:54.714Z,99.90
2019-05-21T16:43:22.104Z,99.90
2019-05-21T16:45:49.511Z,99.90
2019-05-21T16:48:16.943Z,99.90
2019-05-21T16:50:44.338Z,99.90
2019-05-21T16:53:11.839Z,99.90
2019-05-21T16:55:39.337Z,99.90
2019-05-21T16:58:06.800Z,99.90
2019-05-21T17:00:34.192Z,99.90
2019-05-21T17:03:01.586Z,99.90
2019-05-21T17:05:28.927Z,99.90
2019-05-21T17:07:56.278Z,99.90
2019-05-21T17:10:23.687Z,99.90
2019-05-21T17:12:51.983Z,99.90
2019-05-21T17:15:19.431Z,99.90
2019-05-21T17:17:46.805Z,99.90
2019-05-21T17:20:15.872Z,99.90
2019-05-21T17:22:43.199Z,99.90
2019-05-21T17:25:11.428Z,99.90
2019-05-21T17:27:38.799Z,99.90
2019-05-21T17:30:07.849Z,99.90
2019-05-21T17:32:35.217Z,99.90
2019-05-21T17:35:02.626Z,99.90
2019-05-21T17:37:29.994Z,99.90
2019-05-21T17:39:57.357Z,99.90
2019-05-21T17:42:24.830Z,99.90
2019-05-21T17:44:52.304Z,99.90
2019-05-21T17:47:19.682Z,99.90
2019-05-21T17:49:47.067Z,99.90
2019-05-21T17:52:14.487Z,99.90
2019-05-21T17:54:55.463Z,99.90
2019-05-21T17:57:10.976Z,99.90
2019-05-21T17:59:38.416Z,99.90
2019-05-21T18:02:08.572Z,99.90
2019-05-21T18:04:36.535Z,99.90
2019-05-21T18:07:05.716Z,99.90
2019-05-21T18:09:35.061Z,99.90
2019-05-21T18:12:02.523Z,99.90
2019-05-21T18:14:30.399Z,99.90
2019-05-21T18:16:58.329Z,99.90
2019-05-21T18:19:25.740Z,99.90
2019-05-21T18:21:53.116Z,99.90
2019-05-21T18:24:20.484Z,99.90
2019-05-21T18:26:47.903Z,99.90
2019-05-21T18:29:15.279Z,99.90
2019-05-21T18:31:42.947Z,99.90
2019-05-21T18:34:10.337Z,99.90
2019-05-21T18:36:37.766Z,99.90
2019-05-21T18:39:05.703Z,99.90
2019-05-21T18:41:33.092Z,99.90
2019-05-21T18:44:00.450Z,99.90
2019-05-21T18:46:27.935Z,99.90
2019-05-21T18:48:55.269Z,99.90
2019-05-21T18:51:22.633Z,99.90
2019-05-21T18:53:50.006Z,99.90
2019-05-21T18:56:17.408Z,99.90
2019-05-21T18:58:44.963Z,99.90
2019-05-21T19:01:14.166Z,99.90
2019-05-21T19:03:43.422Z,99.90
2019-05-21T19:06:10.869Z,99.90
2019-05-21T19:08:38.276Z,99.90
2019-05-21T19:11:05.665Z,99.90
2019-05-21T19:13:33.146Z,99.90
2019-05-21T19:16:00.510Z,99.90
2019-05-21T19:18:27.860Z,99.90
2019-05-21T19:20:55.257Z,99.90
2019-05-21T19:23:22.645Z,99.90
2019-05-21T19:25:50.090Z,99.90
2019-05-21T19:28:17.452Z,99.90
2019-05-21T19:30:44.857Z,99.90
2019-05-21T19:33:12.316Z,99.90
2019-05-21T19:35:40.549Z,99.90
2019-05-21T19:38:07.818Z,99.90
2019-05-21T19:40:35.200Z,99.90
2019-05-21T19:43:02.597Z,99.90
2019-05-21T19:45:31.449Z,99.90
2019-05-21T19:47:59.192Z,99.90
2019-05-21T19:50:28.368Z,99.90
2019-05-21T19:52:55.684Z,99.90
2019-05-21T19:55:26.194Z,99.90
2019-05-21T19:57:55.420Z,99.90
2019-05-21T20:00:24.346Z,99.90
2019-05-21T20:02:53.458Z,99.90
2019-05-21T20:05:20.840Z,99.90
2019-05-21T20:07:50.192Z,99.90
2019-05-21T20:10:17.604Z,99.90
2019-05-21T20:12:48.598Z,99.90
2019-05-21T20:15:17.843Z,99.90
2019-05-21T20:17:50.711Z,99.90
2019-05-21T20:20:20.573Z,99.90
2019-05-21T20:22:47.977Z,99.90
2019-05-21T20:25:18.150Z,99.90
2019-05-21T20:27:47.059Z,99.90
2019-05-21T20:30:19.647Z,99.90
2019-05-21T20:32:49.792Z,99.90
2019-05-21T20:35:19.010Z,99.90
2019-05-21T20:37:48.804Z,99.90
2019-05-21T20:40:16.215Z,99.90
2019-05-21T20:42:47.231Z,99.90
2019-05-21T20:45:18.344Z,99.90
2019-05-21T20:47:49.685Z,99.90
2019-05-21T20:50:18.321Z,99.90
2019-05-21T20:52:47.473Z,99.90
2019-05-21T20:55:18.530Z,99.90
2019-05-21T20:57:47.751Z,99.90
2019-05-21T21:00:19.496Z,99.90
2019-05-21T21:02:49.088Z,99.90
2019-05-21T21:05:18.375Z,99.90
2019-05-21T21:07:45.771Z,99.90
2019-05-21T21:10:15.624Z,99.90
2019-05-21T21:12:45.560Z,99.90
2019-05-21T21:15:15.676Z,99.90
2019-05-21T21:17:43.840Z,99.90
2019-05-21T21:20:13.110Z,99.90
2019-05-21T21:22:40.492Z,99.90
2019-05-21T21:25:10.334Z,99.90
2019-05-21T21:27:37.764Z,99.90
2019-05-21T21:30:05.340Z,99.90
2019-05-21T21:32:32.977Z,99.90
2019-05-21T21:35:00.408Z,99.90
2019-05-21T21:37:27.728Z,99.90
2019-05-21T21:39:55.237Z,99.90
2019-05-21T21:42:22.844Z,99.90
2019-05-21T21:44:50.658Z,99.90
2019-05-21T21:47:18.676Z,99.90
2019-05-21T21:49:46.347Z,99.90
2019-05-21T21:52:16.358Z,99.90
2019-05-21T21:54:43.930Z,99.90
2019-05-21T21:57:11.427Z,99.90
2019-05-21T21:59:38.934Z,99.90
2019-05-21T22:02:24.389Z,99.90
2019-05-21T22:04:53.107Z,99.90
2019-05-21T22:07:22.244Z,99.90
2019-05-21T22:09:51.612Z,99.90
2019-05-21T22:12:20.948Z,99.90
2019-05-21T22:14:56.361Z,99.90
2019-05-21T22:17:24.831Z,99.90
2019-05-21T22:19:54.001Z,99.90
2019-05-21T22:22:21.522Z,99.90
2019-05-21T22:24:51.043Z,99.90
2019-05-21T22:27:18.456Z,99.90
2019-05-21T22:29:45.841Z,99.90
2019-05-21T22:32:16.513Z,99.90
2019-05-21T22:34:42.481Z,99.90
2019-05-21T22:37:12.321Z,99.90
2019-05-21T22:39:41.641Z,99.90
2019-05-21T22:42:09.153Z,99.90
2019-05-21T22:44:36.947Z,99.90
2019-05-21T22:47:06.305Z,99.90
2019-05-21T22:49:34.183Z,99.90
2019-05-21T22:52:01.849Z,99.90
2019-05-21T22:54:31.034Z,99.90
2019-05-21T22:56:58.449Z,99.90
2019-05-21T22:59:25.918Z,99.90
2019-05-21T23:01:56.374Z,99.90
2019-05-21T23:04:24.036Z,99.90
2019-05-21T23:06:51.652Z,99.90
2019-05-21T23:09:19.063Z,99.90
2019-05-21T23:11:46.565Z,99.90
2019-05-21T23:14:14.059Z,99.90
2019-05-21T23:16:41.412Z,99.90
2019-05-21T23:19:10.790Z,99.90
2019-05-21T23:21:40.035Z,99.90
2019-05-21T23:24:14.169Z,99.90
2019-05-21T23:26:44.152Z,99.90
2019-05-21T23:29:12.089Z,99.90
2019-05-21T23:31:39.511Z,99.90
2019-05-21T23:34:08.297Z,99.90
2019-05-21T23:36:37.881Z,99.90
2019-05-21T23:39:07.868Z,99.90
2019-05-21T23:41:35.383Z,99.90
2019-05-21T23:44:05.240Z,99.90
2019-05-21T23:46:34.492Z,99.90
2019-05-21T23:49:01.918Z,99.90
2019-05-21T23:51:29.403Z,99.90
2019-05-21T23:53:58.599Z,99.90
2019-05-21T23:56:25.848Z,99.90
2019-05-21T23:58:53.319Z,99.90
